createdAt,value
2022-10-05T00:00:20.126Z,11.07
2022-10-05T00:02:47.021Z,11.60
2022-10-05T00:05:21.790Z,6.68
2022-10-05T00:07:48.449Z,8.82
2022-10-05T00:10:16.638Z,10.40
2022-10-05T00:12:44.503Z,8.85
2022-10-05T00:15:12.769Z,8.40
2022-10-05T00:17:39.360Z,8.63
2022-10-05T00:20:16.745Z,11.57
2022-10-05T00:22:42.974Z,7.55
2022-10-05T00:25:21.157Z,8.20
2022-10-05T00:27:54.640Z,6.55
2022-10-05T00:30:21.380Z,9.43
2022-10-05T00:32:48.007Z,6.93
2022-10-05T00:35:15.177Z,8.55
2022-10-05T00:37:41.912Z,8.15
2022-10-05T00:40:18.736Z,10.95
2022-10-05T00:42:44.987Z,6.93
2022-10-05T00:45:18.301Z,8.10
2022-10-05T00:47:47.311Z,9.63
2022-10-05T00:50:13.507Z,7.53
2022-10-05T00:52:46.694Z,8.00
2022-10-05T00:55:35.677Z,7.53
2022-10-05T00:58:08.136Z,8.00
2022-10-05T01:00:38.207Z,8.07
2022-10-05T01:03:10.461Z,9.13
2022-10-05T01:05:36.690Z,7.63
2022-10-05T01:08:08.718Z,8.63
2022-10-05T01:10:51.703Z,8.52
2022-10-05T01:13:17.903Z,8.20
2022-10-05T01:16:04.127Z,8.35
2022-10-05T01:18:39.135Z,10.45
2022-10-05T01:21:14.855Z,7.25
2022-10-05T01:23:59.986Z,7.38
2022-10-05T01:26:26.279Z,8.75
2022-10-05T01:28:58.109Z,10.45
2022-10-05T01:31:27.458Z,8.98
2022-10-05T01:34:04.235Z,8.60
2022-10-05T01:36:39.874Z,8.18
2022-10-05T01:39:41.461Z,11.30
2022-10-05T01:42:13.882Z,8.38
2022-10-05T01:44:54.350Z,7.22
2022-10-05T01:47:22.237Z,9.75
2022-10-05T01:49:48.470Z,8.82
2022-10-05T01:52:24.721Z,10.70
2022-10-05T01:54:51.226Z,7.70
2022-10-05T01:57:23.129Z,9.45
2022-10-05T02:00:07.723Z,8.05
2022-10-05T02:02:36.043Z,13.63
2022-10-05T02:05:09.068Z,7.40
2022-10-05T02:07:50.145Z,10.43
2022-10-05T02:10:28.615Z,9.23
2022-10-05T02:12:59.253Z,8.02
2022-10-05T02:15:45.858Z,14.57
2022-10-05T02:18:19.457Z,10.73
2022-10-05T02:20:46.529Z,9.45
2022-10-05T02:23:17.766Z,10.32
2022-10-05T02:25:46.812Z,9.13
2022-10-05T02:28:15.751Z,8.57
2022-10-05T02:30:44.672Z,8.85
2022-10-05T02:33:13.073Z,11.20
2022-10-05T02:35:39.353Z,10.90
2022-10-05T02:38:28.431Z,7.88
2022-10-05T02:40:58.382Z,9.93
2022-10-05T02:43:42.639Z,8.90
2022-10-05T02:46:08.914Z,9.38
2022-10-05T02:48:54.071Z,10.13
2022-10-05T02:51:23.965Z,7.75
2022-10-05T02:54:10.463Z,7.80
2022-10-05T02:56:48.994Z,11.07
2022-10-05T02:59:19.107Z,7.97
2022-10-05T03:01:45.380Z,8.40
2022-10-05T03:04:34.747Z,9.15
2022-10-05T03:07:10.142Z,9.05
2022-10-05T03:12:05.570Z,10.48
2022-10-05T03:14:50.436Z,9.40
2022-10-05T03:17:21.416Z,8.48
2022-10-05T03:19:50.495Z,7.50
2022-10-05T03:22:22.956Z,7.13
2022-10-05T03:24:55.244Z,8.18
2022-10-05T03:27:24.543Z,11.43
2022-10-05T03:30:11.215Z,8.90
2022-10-05T03:32:50.194Z,7.68
2022-10-05T03:35:16.419Z,8.68
2022-10-05T03:38:01.639Z,11.95
2022-10-05T03:40:36.652Z,7.70
2022-10-05T03:43:06.013Z,7.90
2022-10-05T03:45:41.551Z,10.57
2022-10-05T03:48:25.897Z,8.88
2022-10-05T03:50:52.150Z,9.90
2022-10-05T03:53:19.824Z,7.78
2022-10-05T03:55:49.179Z,8.75
2022-10-05T03:58:22.066Z,7.38
2022-10-05T04:00:51.690Z,9.23
2022-10-05T04:03:47.105Z,11.57
2022-10-05T04:06:13.719Z,9.27
2022-10-05T04:08:43.039Z,8.50
2022-10-05T04:11:14.498Z,7.18
2022-10-05T04:13:56.118Z,8.30
2022-10-05T04:16:24.877Z,9.38
2022-10-05T04:18:56.284Z,7.47
2022-10-05T04:21:29.168Z,9.27
2022-10-05T04:23:59.168Z,8.35
2022-10-05T04:26:48.270Z,7.95
2022-10-05T04:29:19.454Z,7.32
2022-10-05T04:31:52.047Z,7.15
2022-10-05T04:34:36.500Z,7.53
2022-10-05T04:37:04.560Z,7.65
2022-10-05T04:39:44.093Z,6.35
2022-10-05T04:42:10.405Z,6.35
2022-10-05T04:44:44.715Z,6.05
2022-10-05T04:47:37.371Z,6.90
2022-10-05T04:50:06.380Z,6.93
2022-10-05T04:52:40.038Z,6.60
2022-10-05T04:55:18.229Z,13.57
2022-10-05T04:57:47.531Z,8.80
2022-10-05T05:00:28.496Z,5.80
2022-10-05T05:03:00.855Z,6.35
2022-10-05T05:06:05.135Z,5.75
2022-10-05T05:08:47.446Z,7.10
2022-10-05T05:11:33.529Z,7.95
2022-10-05T05:14:11.396Z,7.32
2022-10-05T05:16:41.825Z,6.45
2022-10-05T05:19:08.058Z,4.47
2022-10-05T05:21:37.966Z,5.28
2022-10-05T05:24:20.126Z,5.75
2022-10-05T05:27:09.645Z,5.10
2022-10-05T05:29:35.934Z,3.80
2022-10-05T05:32:21.254Z,3.53
2022-10-05T05:35:05.910Z,3.75
2022-10-05T05:37:35.224Z,3.55
2022-10-05T05:40:13.985Z,2.50
2022-10-05T05:43:00.088Z,2.17
2022-10-05T05:45:26.384Z,3.17
2022-10-05T05:47:54.021Z,4.85
2022-10-05T05:50:32.465Z,4.57
2022-10-05T05:53:03.277Z,2.45
2022-10-05T05:55:31.253Z,4.15
2022-10-05T05:57:59.781Z,2.80
2022-10-05T06:00:32.502Z,3.13
2022-10-05T06:02:58.845Z,2.53
2022-10-05T06:05:28.408Z,4.60
2022-10-05T06:07:55.605Z,3.17
2022-10-05T06:10:26.422Z,4.00
2022-10-05T06:12:58.412Z,4.20
2022-10-05T06:15:40.312Z,2.47
2022-10-05T06:18:11.217Z,4.72
2022-10-05T06:20:42.488Z,3.65
2022-10-05T06:23:20.494Z,4.78
2022-10-05T06:25:56.770Z,2.60
2022-10-05T06:28:24.644Z,4.57
2022-10-05T06:31:06.407Z,14.90
2022-10-05T06:33:45.672Z,3.95
2022-10-05T06:36:38.240Z,3.20
2022-10-05T06:39:07.543Z,5.05
2022-10-05T06:41:52.825Z,7.18
2022-10-05T06:44:22.088Z,5.75
2022-10-05T06:46:48.770Z,3.53
2022-10-05T06:49:21.428Z,4.28
2022-10-05T06:51:56.854Z,4.32
2022-10-05T06:54:26.453Z,4.68
2022-10-05T06:56:58.500Z,5.18
2022-10-05T06:59:40.069Z,4.28
2022-10-05T07:02:10.440Z,4.90
2022-10-05T07:04:53.996Z,3.35
2022-10-05T07:07:45.974Z,4.15
2022-10-05T07:10:24.224Z,7.93
2022-10-05T07:13:09.165Z,4.57
2022-10-05T07:15:49.995Z,5.03
2022-10-05T07:18:35.105Z,4.80
2022-10-05T07:21:10.546Z,6.90
2022-10-05T07:26:09.890Z,4.85
2022-10-05T07:28:52.628Z,5.00
2022-10-05T07:31:28.555Z,6.35
2022-10-05T07:34:09.690Z,6.05
2022-10-05T07:36:59.739Z,7.60
2022-10-05T07:39:48.330Z,4.90
2022-10-05T07:42:50.658Z,4.63
2022-10-05T07:45:27.907Z,3.47
2022-10-05T07:47:55.693Z,3.85
2022-10-05T07:50:35.255Z,5.07
2022-10-05T07:53:04.925Z,7.10
2022-10-05T07:55:36.607Z,4.20
2022-10-05T07:58:02.939Z,4.32
2022-10-05T08:00:43.189Z,3.78
2022-10-05T08:03:35.378Z,4.97
2022-10-05T08:06:03.808Z,4.82
2022-10-05T08:08:41.971Z,4.90
2022-10-05T08:11:13.572Z,4.07
2022-10-05T08:13:48.359Z,4.72
2022-10-05T08:16:16.593Z,3.10
2022-10-05T08:18:56.186Z,5.00
2022-10-05T08:21:35.029Z,5.45
2022-10-05T08:24:18.322Z,6.72
2022-10-05T08:26:59.765Z,4.53
2022-10-05T08:29:29.775Z,3.20
2022-10-05T08:31:58.598Z,5.63
2022-10-05T08:34:38.761Z,5.07
2022-10-05T08:37:08.586Z,5.55
2022-10-05T08:39:40.806Z,5.65
2022-10-05T08:42:16.121Z,4.03
2022-10-05T08:44:42.333Z,6.18
2022-10-05T08:47:11.610Z,4.18
2022-10-05T08:49:56.716Z,5.28
2022-10-05T08:52:41.832Z,10.10
2022-10-05T08:55:22.818Z,3.80
2022-10-05T08:58:07.996Z,4.45
2022-10-05T09:00:40.467Z,5.80
2022-10-05T09:03:15.907Z,7.00
2022-10-05T09:08:23.796Z,6.68
2022-10-05T09:10:50.399Z,4.22
2022-10-05T09:13:25.864Z,5.40
2022-10-05T09:18:21.488Z,4.57
2022-10-05T09:20:52.821Z,3.55
2022-10-05T09:23:19.084Z,8.73
2022-10-05T09:26:05.594Z,3.72
2022-10-05T09:28:34.443Z,2.80
2022-10-05T09:31:16.702Z,2.90
2022-10-05T09:33:55.241Z,3.58
2022-10-05T09:36:40.374Z,4.22
2022-10-05T09:39:25.499Z,3.10
2022-10-05T09:41:51.830Z,3.58
2022-10-05T09:44:22.108Z,2.35
2022-10-05T09:46:48.350Z,5.30
2022-10-05T09:49:32.743Z,5.07
2022-10-05T09:52:08.085Z,5.00
2022-10-05T09:54:46.501Z,3.00
2022-10-05T09:57:23.140Z,3.58
2022-10-05T09:59:52.649Z,4.22
2022-10-05T10:02:38.758Z,3.83
2022-10-05T10:05:20.472Z,7.47
2022-10-05T10:07:58.987Z,3.58
2022-10-05T10:10:41.358Z,3.20
2022-10-05T10:13:16.497Z,3.45
2022-10-05T10:15:57.788Z,3.78
2022-10-05T10:18:39.299Z,6.13
2022-10-05T10:21:05.510Z,3.47
2022-10-05T10:23:31.727Z,4.60
2022-10-05T10:26:16.890Z,3.17
2022-10-05T10:28:43.118Z,3.67
2022-10-05T10:31:28.794Z,4.65
2022-10-05T10:34:14.479Z,2.95
2022-10-05T10:36:59.466Z,6.07
2022-10-05T10:39:37.740Z,6.63
2022-10-05T10:42:03.977Z,2.67
2022-10-05T10:44:42.568Z,4.82
2022-10-05T10:47:12.269Z,5.13
2022-10-05T10:49:38.679Z,4.80
2022-10-05T10:52:05.025Z,5.65
2022-10-05T10:54:42.635Z,5.07
2022-10-05T10:57:25.401Z,6.38
2022-10-05T11:00:12.572Z,4.43
2022-10-05T11:02:49.226Z,5.38
2022-10-05T11:05:25.668Z,3.63
2022-10-05T11:08:10.049Z,5.45
2022-10-05T11:10:36.296Z,6.90
2022-10-05T11:13:11.721Z,4.93
2022-10-05T11:18:15.598Z,3.40
2022-10-05T11:20:44.684Z,3.72
2022-10-05T11:23:29.403Z,5.40
2022-10-05T11:26:01.879Z,4.47
2022-10-05T11:28:36.720Z,4.88
2022-10-05T11:31:21.613Z,8.48
2022-10-05T11:33:58.226Z,5.67
2022-10-05T11:36:50.687Z,3.15
2022-10-05T11:39:37.046Z,4.72
2022-10-05T11:42:09.514Z,4.13
2022-10-05T11:44:54.618Z,4.97
2022-10-05T11:47:32.397Z,5.68
2022-10-05T11:50:20.831Z,6.38
2022-10-05T11:52:47.117Z,3.75
2022-10-05T11:55:16.427Z,5.90
2022-10-05T11:57:47.433Z,5.40
2022-10-05T12:00:21.637Z,8.38
2022-10-05T12:03:03.302Z,5.55
2022-10-05T12:05:36.639Z,3.95
2022-10-05T12:08:14.956Z,3.65
2022-10-05T12:10:41.264Z,2.40
2022-10-05T12:13:15.045Z,2.92
2022-10-05T12:15:41.368Z,6.43
2022-10-05T12:18:10.656Z,4.38
2022-10-05T12:20:40.678Z,3.78
2022-10-05T12:23:33.586Z,3.25
2022-10-05T12:26:05.224Z,3.70
2022-10-05T12:28:43.573Z,3.60
2022-10-05T12:31:20.622Z,6.32
2022-10-05T12:33:46.986Z,5.43
2022-10-05T12:36:59.202Z,5.82
2022-10-05T12:39:40.067Z,2.50
2022-10-05T12:42:11.272Z,6.15
2022-10-05T12:44:56.641Z,3.63
2022-10-05T12:47:35.208Z,3.75
2022-10-05T12:50:10.626Z,3.97
2022-10-05T12:55:03.044Z,9.10
2022-10-05T12:57:48.243Z,4.60
2022-10-05T13:00:19.014Z,5.07
2022-10-05T13:02:50.884Z,4.05
2022-10-05T13:05:19.713Z,6.63
2022-10-05T13:08:06.507Z,4.15
2022-10-05T13:10:51.563Z,4.03
2022-10-05T13:13:17.803Z,4.07
2022-10-05T13:16:04.641Z,4.78
2022-10-05T13:18:33.722Z,2.45
2022-10-05T13:21:04.459Z,3.92
2022-10-05T13:23:38.569Z,4.68
2022-10-05T13:26:10.734Z,4.22
2022-10-05T13:28:37.186Z,7.20
2022-10-05T13:31:09.002Z,5.03
2022-10-05T13:33:41.408Z,5.45
2022-10-05T13:36:15.050Z,2.95
2022-10-05T13:38:42.002Z,2.70
2022-10-05T13:41:26.663Z,2.80
2022-10-05T13:44:05.193Z,6.25
2022-10-05T13:46:40.750Z,5.13
2022-10-05T13:49:13.255Z,5.45
2022-10-05T13:51:42.515Z,2.35
2022-10-05T13:54:20.684Z,3.70
2022-10-05T13:56:52.864Z,2.47
2022-10-05T13:59:29.813Z,3.67
2022-10-05T14:02:05.725Z,2.40
2022-10-05T14:04:43.703Z,3.30
2022-10-05T14:07:22.634Z,4.57
2022-10-05T14:09:49.889Z,4.82
2022-10-05T14:12:20.745Z,2.20
2022-10-05T14:14:47.036Z,2.95
2022-10-05T14:17:15.858Z,6.78
2022-10-05T14:19:46.290Z,3.22
2022-10-05T14:22:14.607Z,4.82
2022-10-05T14:24:50.874Z,3.70
2022-10-05T14:27:18.145Z,2.15
2022-10-05T14:29:44.435Z,5.47
2022-10-05T14:32:14.829Z,2.05
2022-10-05T14:34:45.765Z,4.25
2022-10-05T14:37:26.117Z,3.90
2022-10-05T14:39:57.827Z,3.80
2022-10-05T14:42:25.286Z,10.15
2022-10-05T14:45:11.382Z,4.32
2022-10-05T14:47:45.322Z,7.10
2022-10-05T14:50:17.615Z,7.60
2022-10-05T14:52:51.693Z,3.15
2022-10-05T14:55:27.775Z,3.03
2022-10-05T14:57:59.497Z,2.85
2022-10-05T15:00:26.094Z,2.78
2022-10-05T15:03:17.975Z,4.43
2022-10-05T15:05:59.032Z,3.15
2022-10-05T15:08:45.060Z,6.50
2022-10-05T15:11:20.845Z,2.75
2022-10-05T15:13:48.554Z,2.40
2022-10-05T15:16:22.003Z,3.10
2022-10-05T15:19:15.923Z,3.15
2022-10-05T15:21:57.685Z,3.80
2022-10-05T15:24:26.806Z,3.92
2022-10-05T15:26:54.415Z,4.30
2022-10-05T15:29:42.375Z,1.80
2022-10-05T15:32:28.804Z,2.33
2022-10-05T15:35:14.106Z,4.45
2022-10-05T15:37:42.405Z,4.05
2022-10-05T15:40:28.047Z,3.13
2022-10-05T15:42:58.416Z,5.50
2022-10-05T15:45:32.984Z,1.50
2022-10-05T15:48:01.539Z,4.63
2022-10-05T15:50:55.344Z,4.03
2022-10-05T15:53:25.230Z,3.45
2022-10-05T15:55:54.616Z,3.67
2022-10-05T15:58:21.280Z,2.75
2022-10-05T16:00:51.044Z,3.08
2022-10-05T16:03:50.953Z,2.97
2022-10-05T16:07:04.626Z,3.55
2022-10-05T16:09:36.968Z,4.07
2022-10-05T16:12:14.054Z,5.18
2022-10-05T16:14:46.067Z,1.83
2022-10-05T16:17:32.776Z,5.03
2022-10-05T16:20:17.867Z,3.38
2022-10-05T16:23:07.442Z,2.38
2022-10-05T16:25:36.445Z,4.10
2022-10-05T16:28:05.697Z,4.90
2022-10-05T16:30:52.272Z,3.53
2022-10-05T16:33:23.409Z,2.55
2022-10-05T16:35:49.735Z,2.72
2022-10-05T16:38:26.884Z,4.75
2022-10-05T16:41:02.401Z,3.55
2022-10-05T16:43:44.760Z,5.72
2022-10-05T16:46:27.962Z,2.13
2022-10-05T16:49:00.131Z,2.72
2022-10-05T16:51:45.327Z,2.70
2022-10-05T16:54:14.573Z,5.28
2022-10-05T16:56:46.547Z,3.38
2022-10-05T16:59:18.792Z,2.55
2022-10-05T17:01:56.843Z,2.92
2022-10-05T17:04:32.229Z,6.47
2022-10-05T17:07:06.068Z,8.50
2022-10-05T17:09:44.192Z,4.10
2022-10-05T17:12:17.967Z,4.50
2022-10-05T17:15:13.688Z,5.40
2022-10-05T17:17:49.090Z,2.90
2022-10-05T17:22:57.790Z,4.75
2022-10-05T17:25:34.189Z,5.07
2022-10-05T17:28:20.836Z,3.75
2022-10-05T17:30:53.787Z,3.47
2022-10-05T17:33:20.728Z,2.13
2022-10-05T17:36:12.292Z,4.10
2022-10-05T17:38:45.723Z,3.13
2022-10-05T17:41:11.917Z,2.35
2022-10-05T17:43:38.639Z,2.45
2022-10-05T17:46:09.611Z,5.03
2022-10-05T17:48:41.671Z,2.95
2022-10-05T17:51:45.449Z,3.80
2022-10-05T17:54:40.650Z,5.75
2022-10-05T17:57:06.882Z,2.13
2022-10-05T17:59:51.625Z,4.35
2022-10-05T18:02:30.529Z,3.75
2022-10-05T18:05:06.002Z,4.82
2022-10-05T18:07:33.349Z,5.18
2022-10-05T18:09:59.694Z,4.28
2022-10-05T18:12:28.690Z,8.75
2022-10-05T18:15:07.207Z,6.43
2022-10-05T18:17:40.333Z,3.95
2022-10-05T18:20:21.748Z,3.30
2022-10-05T18:22:50.769Z,2.30
2022-10-05T18:25:25.813Z,4.63
2022-10-05T18:28:00.660Z,3.22
2022-10-05T18:30:31.026Z,3.65
2022-10-05T18:32:57.832Z,2.00
2022-10-05T18:35:42.895Z,3.58
2022-10-05T18:38:27.115Z,3.35
2022-10-05T18:40:53.677Z,4.07
2022-10-05T18:43:22.781Z,8.70
2022-10-05T18:45:55.059Z,3.15
2022-10-05T18:48:27.539Z,5.20
2022-10-05T18:51:06.769Z,3.13
2022-10-05T18:53:59.549Z,3.95
2022-10-05T18:56:36.228Z,4.82
2022-10-05T18:59:24.035Z,3.58
2022-10-05T19:01:59.841Z,5.18
2022-10-05T19:04:26.561Z,5.95
2022-10-05T19:07:11.916Z,5.82
2022-10-05T19:09:47.424Z,4.15
2022-10-05T19:12:21.390Z,2.38
2022-10-05T19:14:54.992Z,4.53
2022-10-05T19:17:21.279Z,3.67
2022-10-05T19:19:47.505Z,3.33
2022-10-05T19:22:16.567Z,5.03
2022-10-05T19:25:08.120Z,5.28
2022-10-05T19:27:55.390Z,6.30
2022-10-05T19:30:27.357Z,2.33
2022-10-05T19:33:10.640Z,5.57
2022-10-05T19:35:58.020Z,3.38
2022-10-05T19:38:31.618Z,4.82
2022-10-05T19:41:14.967Z,6.22
2022-10-05T19:43:53.505Z,2.50
2022-10-05T19:46:20.210Z,4.20
2022-10-05T19:48:52.266Z,2.08
2022-10-05T19:51:30.642Z,1.40
2022-10-05T19:53:58.774Z,3.13
2022-10-05T19:56:26.382Z,3.80
2022-10-05T19:58:56.397Z,6.18
2022-10-05T20:01:24.185Z,2.13
2022-10-05T20:03:51.289Z,2.78
2022-10-05T20:06:18.993Z,1.35
2022-10-05T20:08:46.429Z,4.40
2022-10-05T20:11:17.026Z,3.97
2022-10-05T20:13:47.080Z,1.90
2022-10-05T20:16:35.213Z,1.52
2022-10-05T20:19:43.546Z,4.38
2022-10-05T20:22:28.192Z,0.85
2022-10-05T20:24:55.680Z,4.13
2022-10-05T20:27:36.216Z,1.42
2022-10-05T20:30:02.759Z,0.95
2022-10-05T20:32:30.831Z,4.28
2022-10-05T20:34:57.221Z,4.13
2022-10-05T20:37:23.959Z,3.22
2022-10-05T20:39:53.455Z,2.05
2022-10-05T20:42:21.007Z,2.85
2022-10-05T20:44:49.924Z,4.63
2022-10-05T20:47:19.277Z,6.72
2022-10-05T20:49:45.614Z,4.70
2022-10-05T20:52:14.921Z,3.17
2022-10-05T20:54:41.268Z,2.38
2022-10-05T20:57:08.618Z,3.75
2022-10-05T20:59:35.553Z,2.00
2022-10-05T21:02:02.030Z,3.97
2022-10-05T21:04:39.996Z,5.47
2022-10-05T21:07:07.165Z,2.70
2022-10-05T21:09:33.622Z,2.38
2022-10-05T21:11:59.885Z,0.75
2022-10-05T21:14:30.462Z,2.38
2022-10-05T21:16:57.085Z,0.73
2022-10-05T21:19:23.378Z,1.63
2022-10-05T21:21:49.930Z,3.60
2022-10-05T21:24:17.256Z,3.38
2022-10-05T21:26:44.296Z,1.85
2022-10-05T21:29:12.706Z,1.55
2022-10-05T21:31:39.653Z,7.00
2022-10-05T21:34:06.040Z,6.55
2022-10-05T21:36:32.753Z,0.52
2022-10-05T21:38:59.244Z,2.55
2022-10-05T21:41:25.524Z,0.73
2022-10-05T21:43:51.917Z,3.05
2022-10-05T21:46:20.846Z,0.93
2022-10-05T21:48:47.815Z,3.50
2022-10-05T21:51:16.530Z,3.83
2022-10-05T21:53:45.762Z,2.03
2022-10-05T21:56:14.190Z,0.50
2022-10-05T21:58:43.166Z,3.30
2022-10-05T22:01:09.524Z,2.95
2022-10-05T22:03:35.922Z,1.98
2022-10-05T22:06:03.615Z,1.27
2022-10-05T22:08:31.742Z,0.68
2022-10-05T22:11:08.130Z,2.38
2022-10-05T22:13:40.664Z,1.27
2022-10-05T22:16:07.007Z,0.93
2022-10-05T22:18:33.278Z,5.18
2022-10-05T22:20:59.579Z,1.65
2022-10-05T22:23:25.803Z,4.70
2022-10-05T22:25:52.956Z,2.50
2022-10-05T22:28:19.332Z,1.70
2022-10-05T22:30:46.071Z,0.77
2022-10-05T22:33:13.203Z,6.75
2022-10-05T22:35:39.733Z,1.45
2022-10-05T22:38:06.055Z,1.83
2022-10-05T22:40:32.307Z,2.17
2022-10-05T22:42:58.532Z,5.53
2022-10-05T22:45:30.317Z,3.17
2022-10-05T22:47:58.666Z,4.15
2022-10-05T22:50:24.953Z,8.02
2022-10-05T22:52:52.590Z,5.45
2022-10-05T22:55:18.921Z,5.32
2022-10-05T22:57:45.238Z,6.28
2022-10-05T23:00:12.146Z,4.40
2022-10-05T23:02:39.469Z,4.97
2022-10-05T23:05:06.429Z,9.02
2022-10-05T23:07:43.212Z,8.20
2022-10-05T23:10:11.713Z,4.68
2022-10-05T23:12:38.094Z,7.63
2022-10-05T23:15:05.411Z,11.52
2022-10-05T23:17:36.019Z,3.92
2022-10-05T23:20:03.281Z,7.78
2022-10-05T23:22:29.619Z,9.77
2022-10-05T23:24:55.866Z,9.82
2022-10-05T23:27:22.132Z,9.02
2022-10-05T23:29:50.014Z,5.80
2022-10-05T23:32:16.332Z,11.10
2022-10-05T23:34:42.587Z,11.35
2022-10-05T23:37:08.981Z,16.80
2022-10-05T23:39:35.369Z,7.20
2022-10-05T23:42:01.623Z,11.02
2022-10-05T23:44:28.624Z,5.55
2022-10-05T23:46:54.870Z,7.32
2022-10-05T23:49:21.143Z,8.05
2022-10-05T23:51:47.435Z,11.52
2022-10-05T23:54:13.700Z,9.90
2022-10-05T23:56:39.948Z,5.70
2022-10-05T23:59:06.199Z,10.73
